Nearby METAR Reports

 

EGEO - Oban, United Kingdom
Distance from station: SSW 18mi, 30km
Updated: 17/04/2021 14:50
NOT Current
Few Clouds
Few Clouds
 Wind from S
Wind: S 17 mph , 28 km/h
Temperature: 13°C
Dew Point: -1°C
Humidity: 38%
Barometer: 1026 hPa
Clouds: Few Clouds
Visibility: 6 miles , 10 km
Cloud details: Few Clouds 1067 m
2021/04/17 13:50 EGEO 171350Z 19015KT 9999 FEW035 13/M01 Q1026
EGPU - Tiree, United Kingdom
Distance from station: WSW 64mi, 103km
Updated: 18/04/2021 12:50
Overcast
Overcast
 Wind from S
Wind: S 21 mph , 33 km/h
Temperature: 8°C
Wind Chill: 3°C
Dew Point: 8°C
Humidity: 100%
Barometer: 1021 hPa
Clouds: Overcast
Visibility: 1 mile , 2 km
Cloud details: Overcast 61 m
2021/04/18 11:50 EGPU 181150Z AUTO 17018KT 2100 OVC002/// 08/08 Q1021
EGPF - Glasgow, United Kingdom
Distance from station: SSE 66mi, 107km
Updated: 18/04/2021 12:50
Overcast
Overcast
 Wind from SSE
Wind: SSE 9 mph , 15 km/h
Temperature: 10°C
Wind Chill: 8°C
Dew Point: 5°C
Humidity: 71%
Barometer: 1024 hPa
Clouds: Overcast
Visibility: 6 miles , 10 km
Cloud details: Mostly cloudy 792 m
Mostly cloudy 1006 m
Overcast 1341 m
2021/04/18 11:50 EGPF 181150Z AUTO 16008KT 9999 BKN026 BKN033 OVC044 10/05 Q1024
 
EGPE - Inverness, United Kingdom
Distance from station: NE 71mi, 114km
Updated: 18/04/2021 12:50
Mostly cloudy
Mostly cloudy
 Wind from SSW
Wind: SSW 12 mph , 19 km/h
Temperature: 10°C
Wind Chill: 7°C
Dew Point: 5°C
Humidity: 71%
Barometer: 1022 hPa
Clouds: Mostly cloudy
Visibility: 6 miles , 10 km
Cloud details: Mostly cloudy 1372 m
2021/04/18 11:50 EGPE 181150Z 20010KT 9999 BKN045 10/05 Q1022
EGPI - Islay/Port Ellen, United Kingdom
Distance from station: SSW 81mi, 131km
Updated: 18/04/2021 12:50
Mist, Overcast
Mist, Overcast
 Wind from varies
Wind: varies 14 mph , 22 km/h
Temperature: 8°C
Wind Chill: 4°C
Dew Point: 8°C
Humidity: 100%
Barometer: 1022 hPa
Summary: Mist
Clouds: Overcast
Visibility: 2 miles , 3 km
Cloud details: Overcast 91 m
2021/04/18 11:50 EGPI 181150Z AUTO VRB12KT 2800 BR OVC003/// 08/08 Q1022
EGPN - Dundee/Riverside, United Kingdom
Distance from station: E 86mi, 138km
Updated: 18/04/2021 12:50
Few Clouds
Few Clouds
 Wind from varies
Wind: varies 2 mph , 4 km/h
Temperature: 10°C
Dew Point: 5°C
Humidity: 71%
Barometer: 1024 hPa
Clouds: Few Clouds
Visibility: 6 miles , 10 km
Cloud details: Few Clouds 1219 m
2021/04/18 11:50 EGPN 181150Z VRB02KT 9999 FEW040 10/05 Q1024
 
EGPK - Prestwick, United Kingdom
Distance from station: SSE 88mi, 141km
Updated: 18/04/2021 12:50
Overcast
Overcast
 Wind from S
Wind: S 10 mph , 17 km/h
Temperature: 11°C
Dew Point: 4°C
Humidity: 62%
Barometer: 1024 hPa
Clouds: Overcast
Visibility: 6 miles , 10 km
Cloud details: Partly cloudy 884 m
Mostly cloudy 1006 m
Overcast 1250 m
2021/04/18 11:50 EGPK 181150Z 19009KT 160V220 9999 SCT029 BKN033 OVC041 11/04 Q1024
EGPH - Edinburgh, United Kingdom
Distance from station: SE 89mi, 143km
Updated: 18/04/2021 12:50
Light rain, Overcast
Light rain, Overcast
 Wind from varies
Wind: varies 3 mph , 6 km/h
Temperature: 11°C
Dew Point: 4°C
Humidity: 62%
Barometer: 1024 hPa
Summary: Light rain
Clouds: Overcast
Visibility: 6 miles , 10 km
Cloud details: Overcast 1463 m
2021/04/18 11:50 EGPH 181150Z VRB03KT 9999 -RA OVC048 11/04 Q1024
EGQK - RAF Kinloss, United Kingdom
Distance from station: NE 90mi, 144km
Updated: 18/04/2021 11:50
NOT Current
Light rain, Mostly cloudy
Light rain, Mostly cloudy
 Wind from SSW
Wind: SSW 10 mph , 17 km/h
Temperature: 9°C
Wind Chill: 7°C
Dew Point: 5°C
Humidity: 76%
Barometer: 1022 hPa
Summary: Light rain
Clouds: Mostly cloudy
Visibility: 6 miles , 10 km
Cloud details: Mostly cloudy 1524 m
2021/04/18 10:50 EGQK 181050Z AUTO 20009KT 9999 -RA BKN050/// 09/05 Q1022
 
EGEC - Campbeltown, United Kingdom
Distance from station: S 90mi, 145km
Updated: 16/04/2021 09:20
NOT Current
Few Clouds
Few Clouds
 Wind from SSE
Wind: SSE 14 mph , 22 km/h
Temperature: 9°C
Wind Chill: 6°C
Dew Point: 6°C
Humidity: 82%
Barometer: 1030 hPa
Clouds: Few Clouds
Visibility: 6 miles , 10 km
Cloud details: Few Clouds 610 m
2021/04/16 08:20 EGEC 160820Z 16012KT 9999 FEW020 09/06 Q1030
EGQA - Tain Range, United Kingdom
Distance from station: NNE 91mi, 146km
Updated: 15/04/2021 17:50
NOT Current
Clear
Clear
 Wind from N
Wind: N 7 mph , 11 km/h
Summary: Clear
Visibility: greater than 7 miles , 10 km
2021/04/15 16:50 EGQA 151650Z 01006KT CAVOK 13/// Q1032 RMK BLU
EGQL - RAF Leuchars, United Kingdom
Distance from station: ESE 93mi, 149km
Updated: 18/04/2021 12:50
Clear
Clear
 Wind from WSW
Wind: WSW 6 mph , 9 km/h
Temperature: 11°C
Dew Point: 3°C
Humidity: 58%
Barometer: 1024 hPa
Summary: Clear
Visibility: greater than 7 miles , 10 km
2021/04/18 11:50 EGQL 181150Z 25005KT CAVOK 11/03 Q1024 BLU
 
EGPL - Benbecula, United Kingdom
Distance from station: WNW 96mi, 154km
Updated: 18/04/2021 12:50
Overcast
Overcast
 Wind from S
Wind: S 21 mph , 33 km/h
Temperature: 9°C
Wind Chill: 5°C
Dew Point: 8°C
Humidity: 94%
Barometer: 1019 hPa
Clouds: Overcast
Visibility: 6 miles , 10 km
Cloud details: Overcast 122 m
2021/04/18 11:50 EGPL 181150Z AUTO 18018KT 9999 OVC004/// 09/08 Q1019
EGQS - RAF Lossiemouth, United Kingdom
Distance from station: NE 99mi, 160km
Updated: 18/04/2021 12:50
Light rain, Overcast
Light rain, Overcast
 Wind from SSW
Wind: SSW 13 mph , 20 km/h
Temperature: 11°C
Dew Point: 5°C
Humidity: 67%
Barometer: 1022 hPa
Summary: Light rain
Clouds: Overcast
Visibility: 6 miles , 10 km
Cloud details: Few Clouds 1097 m
Overcast 1829 m
2021/04/18 11:50 EGQS 181150Z 21011KT 9999 -RA FEW036 OVC060 11/05 Q1022 RMK BLU
EGPO - Stornoway, United Kingdom
Distance from station: NNW 111mi, 179km
Updated: 18/04/2021 12:50
Overcast
Overcast
 Wind from S
Wind: S 14 mph , 22 km/h
Temperature: 8°C
Wind Chill: 4°C
Dew Point: 7°C
Humidity: 93%
Barometer: 1020 hPa
Clouds: Overcast
Visibility: 6 miles , 10 km
Cloud details: Mostly cloudy 91 m
Overcast 366 m
2021/04/18 11:50 EGPO 181150Z AUTO 18012KT 9999 BKN003/// OVC012/// 08/07 Q1020
 
EGPD - Aberdeen/Dyce, United Kingdom
Distance from station: ENE 118mi, 190km
Updated: 18/04/2021 12:50
Clear
Clear
 Wind from SSE
Wind: SSE 14 mph , 22 km/h
Temperature: 11°C
Dew Point: 4°C
Humidity: 62%
Barometer: 1023 hPa
Clouds: Clear
Visibility: 6 miles , 10 km
2021/04/18 11:50 EGPD 181150Z AUTO 16012KT 9999 NCD 11/04 Q1023 NOSIG
EGAE - Eglinton/Londond, United Kingdom
Distance from station: SSW 138mi, 222km
Updated: 18/04/2021 12:50
Light rain, Mostly cloudy
Light rain, Mostly cloudy
 Wind from SW
Wind: SW 14 mph , 22 km/h
Temperature: 11°C
Dew Point: 8°C
Humidity: 82%
Barometer: 1021 hPa
Summary: Light rain
Clouds: Mostly cloudy
Visibility: 6 miles , 10 km
Cloud details: Few Clouds 244 m
Partly cloudy 366 m
Mostly cloudy 457 m
2021/04/18 11:50 EGAE 181150Z 22012KT 9999 -RA FEW008 SCT012 BKN015 11/08 Q1021
EGPC - Wick, United Kingdom
Distance from station: NNE 144mi, 232km
Updated: 18/04/2021 12:50
Few Clouds
Few Clouds
 Wind from SSE
Wind: SSE 8 mph , 13 km/h
Temperature: 9°C
Wind Chill: 7°C
Dew Point: 4°C
Humidity: 71%
Barometer: 1022 hPa
Clouds: Few Clouds
Visibility: 6 miles , 10 km
Cloud details: Few Clouds 1219 m
2021/04/18 11:50 EGPC 181150Z 16007KT 9999 FEW040 09/04 Q1022

Metar display script from Saratoga-Weather.org